sensor_id;sensor_type;location;lat;lon;timestamp;pressure;altitude;pressure_sealevel;temperature;humidity
30421;BME280;17218;54.070;10.012;2022-12-07T00:01:50;100918.19;;;1.96;100.00
30421;BME280;17218;54.070;10.012;2022-12-07T00:04:19;100918.44;;;2.04;100.00
30421;BME280;17218;54.070;10.012;2022-12-07T00:06:50;100916.75;;;2.05;100.00
30421;BME280;17218;54.070;10.012;2022-12-07T00:09:17;100906.34;;;1.98;100.00
30421;BME280;17218;54.070;10.012;2022-12-07T00:11:45;100897.22;;;2.07;100.00
30421;BME280;17218;54.070;10.012;2022-12-07T00:14:16;100908.88;;;1.98;100.00
30421;BME280;17218;54.070;10.012;2022-12-07T00:16:43;100904.63;;;1.97;100.00
30421;BME280;17218;54.070;10.012;2022-12-07T00:19:11;100899.66;;;2.03;100.00
30421;BME280;17218;54.070;10.012;2022-12-07T00:21:38;100887.78;;;2.04;100.00
30421;BME280;17218;54.070;10.012;2022-12-07T00:24:05;100895.19;;;1.96;100.00
30421;BME280;17218;54.070;10.012;2022-12-07T00:26:34;100884.97;;;1.96;100.00
30421;BME280;17218;54.070;10.012;2022-12-07T00:29:03;100879.09;;;1.99;100.00
30421;BME280;17218;54.070;10.012;2022-12-07T00:31:33;100884.41;;;2.05;100.00
30421;BME280;17218;54.070;10.012;2022-12-07T00:34:04;100887.09;;;2.10;100.00
30421;BME280;17218;54.070;10.012;2022-12-07T00:36:31;100872.72;;;2.13;100.00
30421;BME280;17218;54.070;10.012;2022-12-07T00:38:59;100872.94;;;2.21;100.00
30421;BME280;17218;54.070;10.012;2022-12-07T00:41:28;100870.75;;;2.34;100.00
30421;BME280;17218;54.070;10.012;2022-12-07T00:43:55;100868.56;;;2.17;100.00
30421;BME280;17218;54.070;10.012;2022-12-07T00:46:22;100873.47;;;2.11;100.00
30421;BME280;17218;54.070;10.012;2022-12-07T00:48:51;100876.63;;;2.02;100.00
30421;BME280;17218;54.070;10.012;2022-12-07T00:51:20;100867.41;;;2.07;100.00
30421;BME280;17218;54.070;10.012;2022-12-07T00:53:48;100871.28;;;2.22;100.00
30421;BME280;17218;54.070;10.012;2022-12-07T00:56:16;100852.47;;;2.20;100.00
30421;BME280;17218;54.070;10.012;2022-12-07T00:58:43;100850.41;;;2.08;100.00
30421;BME280;17218;54.070;10.012;2022-12-07T01:01:10;100847.84;;;2.08;100.00
30421;BME280;17218;54.070;10.012;2022-12-07T01:03:37;100855.75;;;2.16;100.00
30421;BME280;17218;54.070;10.012;2022-12-07T01:06:06;100847.38;;;2.21;100.00
30421;BME280;17218;54.070;10.012;2022-12-07T01:08:33;100854.25;;;2.24;100.00
30421;BME280;17218;54.070;10.012;2022-12-07T01:11:01;100861.38;;;2.34;100.00
30421;BME280;17218;54.070;10.012;2022-12-07T01:13:28;100853.94;;;2.42;100.00
30421;BME280;17218;54.070;10.012;2022-12-07T01:15:57;100853.75;;;2.36;100.00
30421;BME280;17218;54.070;10.012;2022-12-07T01:18:25;100852.19;;;2.41;100.00
30421;BME280;17218;54.070;10.012;2022-12-07T01:20:58;100849.81;;;2.47;100.00
30421;BME280;17218;54.070;10.012;2022-12-07T01:23:26;100853.16;;;2.45;100.00
30421;BME280;17218;54.070;10.012;2022-12-07T01:25:56;100847.88;;;2.38;100.00
30421;BME280;17218;54.070;10.012;2022-12-07T01:28:23;100854.63;;;2.36;100.00
30421;BME280;17218;54.070;10.012;2022-12-07T01:31:01;100847.03;;;2.40;100.00
30421;BME280;17218;54.070;10.012;2022-12-07T01:33:29;100854.97;;;2.49;100.00
30421;BME280;17218;54.070;10.012;2022-12-07T01:36:01;100859.09;;;2.44;100.00
30421;BME280;17218;54.070;10.012;2022-12-07T01:38:29;100851.72;;;2.55;100.00
30421;BME280;17218;54.070;10.012;2022-12-07T01:40:56;100848.50;;;2.62;100.00
30421;BME280;17218;54.070;10.012;2022-12-07T01:43:24;100844.31;;;2.64;100.00
30421;BME280;17218;54.070;10.012;2022-12-07T01:45:52;100848.53;;;2.64;100.00
30421;BME280;17218;54.070;10.012;2022-12-07T01:48:22;100847.88;;;2.71;100.00
30421;BME280;17218;54.070;10.012;2022-12-07T01:50:51;100849.75;;;2.77;100.00
30421;BME280;17218;54.070;10.012;2022-12-07T01:53:21;100848.78;;;2.73;100.00
30421;BME280;17218;54.070;10.012;2022-12-07T01:55:52;100842.19;;;2.81;100.00
30421;BME280;17218;54.070;10.012;2022-12-07T01:58:20;100852.50;;;2.84;100.00
30421;BME280;17218;54.070;10.012;2022-12-07T02:00:47;100847.53;;;2.91;100.00
30421;BME280;17218;54.070;10.012;2022-12-07T02:03:18;100845.16;;;2.97;100.00
30421;BME280;17218;54.070;10.012;2022-12-07T02:05:47;100836.69;;;3.00;100.00
30421;BME280;17218;54.070;10.012;2022-12-07T02:08:14;100839.47;;;3.09;100.00
30421;BME280;17218;54.070;10.012;2022-12-07T02:10:41;100836.84;;;3.06;100.00
30421;BME280;17218;54.070;10.012;2022-12-07T02:13:11;100836.91;;;3.09;100.00
30421;BME280;17218;54.070;10.012;2022-12-07T02:15:47;100830.03;;;3.06;100.00
30421;BME280;17218;54.070;10.012;2022-12-07T02:18:23;100830.81;;;3.04;100.00
30421;BME280;17218;54.070;10.012;2022-12-07T02:20:59;100836.50;;;2.92;100.00
30421;BME280;17218;54.070;10.012;2022-12-07T02:23:40;100822.75;;;2.88;100.00
30421;BME280;17218;54.070;10.012;2022-12-07T02:26:28;100824.16;;;2.77;100.00
30421;BME280;17218;54.070;10.012;2022-12-07T02:29:18;100823.94;;;2.69;100.00
30421;BME280;17218;54.070;10.012;2022-12-07T02:31:55;100829.88;;;2.66;100.00
30421;BME280;17218;54.070;10.012;2022-12-07T02:34:34;100827.16;;;2.61;100.00
30421;BME280;17218;54.070;10.012;2022-12-07T02:37:10;100823.84;;;2.64;100.00
30421;BME280;17218;54.070;10.012;2022-12-07T02:39:44;100833.19;;;2.64;100.00
30421;BME280;17218;54.070;10.012;2022-12-07T02:42:17;100822.72;;;2.54;100.00
30421;BME280;17218;54.070;10.012;2022-12-07T02:44:47;100825.31;;;2.56;100.00
30421;BME280;17218;54.070;10.012;2022-12-07T02:47:16;100829.47;;;2.52;100.00
30421;BME280;17218;54.070;10.012;2022-12-07T02:49:44;100841.28;;;2.47;100.00
30421;BME280;17218;54.070;10.012;2022-12-07T02:52:10;100846.44;;;2.48;100.00
30421;BME280;17218;54.070;10.012;2022-12-07T02:54:37;100840.56;;;2.53;100.00
30421;BME280;17218;54.070;10.012;2022-12-07T02:57:14;100842.94;;;2.46;100.00
30421;BME280;17218;54.070;10.012;2022-12-07T02:59:54;100849.84;;;2.49;100.00
30421;BME280;17218;54.070;10.012;2022-12-07T03:02:30;100860.19;;;2.54;100.00
30421;BME280;17218;54.070;10.012;2022-12-07T03:05:12;100854.97;;;2.49;100.00
30421;BME280;17218;54.070;10.012;2022-12-07T03:07:48;100861.66;;;2.44;100.00
30421;BME280;17218;54.070;10.012;2022-12-07T03:10:21;100857.31;;;2.41;100.00
30421;BME280;17218;54.070;10.012;2022-12-07T03:12:57;100864.09;;;2.41;100.00
30421;BME280;17218;54.070;10.012;2022-12-07T03:15:32;100851.47;;;2.45;100.00
30421;BME280;17218;54.070;10.012;2022-12-07T03:18:01;100849.03;;;2.50;100.00
30421;BME280;17218;54.070;10.012;2022-12-07T03:20:31;100852.56;;;2.55;100.00
30421;BME280;17218;54.070;10.012;2022-12-07T03:22:59;100859.47;;;2.58;100.00
30421;BME280;17218;54.070;10.012;2022-12-07T03:25:26;100846.81;;;2.62;100.00
30421;BME280;17218;54.070;10.012;2022-12-07T03:27:56;100850.13;;;2.58;100.00
30421;BME280;17218;54.070;10.012;2022-12-07T03:30:28;100849.31;;;2.61;100.00
30421;BME280;17218;54.070;10.012;2022-12-07T03:33:00;100837.31;;;2.58;100.00
30421;BME280;17218;54.070;10.012;2022-12-07T03:35:33;100839.00;;;2.58;100.00
30421;BME280;17218;54.070;10.012;2022-12-07T03:38:06;100839.97;;;2.61;100.00
30421;BME280;17218;54.070;10.012;2022-12-07T03:40:41;100840.63;;;2.54;100.00
30421;BME280;17218;54.070;10.012;2022-12-07T03:43:10;100855.00;;;2.50;100.00
30421;BME280;17218;54.070;10.012;2022-12-07T03:45:40;100854.13;;;2.50;100.00
30421;BME280;17218;54.070;10.012;2022-12-07T03:48:15;100857.00;;;2.30;100.00
30421;BME280;17218;54.070;10.012;2022-12-07T03:50:48;100841.75;;;2.33;100.00
30421;BME280;17218;54.070;10.012;2022-12-07T03:53:19;100850.94;;;2.26;100.00
30421;BME280;17218;54.070;10.012;2022-12-07T03:55:49;100853.50;;;2.26;100.00
30421;BME280;17218;54.070;10.012;2022-12-07T03:58:18;100844.31;;;2.33;100.00
30421;BME280;17218;54.070;10.012;2022-12-07T04:00:45;100851.16;;;2.34;100.00
30421;BME280;17218;54.070;10.012;2022-12-07T04:03:13;100839.22;;;2.35;100.00
30421;BME280;17218;54.070;10.012;2022-12-07T04:05:40;100842.75;;;2.38;100.00
30421;BME280;17218;54.070;10.012;2022-12-07T04:08:08;100851.25;;;2.37;100.00
30421;BME280;17218;54.070;10.012;2022-12-07T04:10:35;100842.75;;;2.38;100.00
30421;BME280;17218;54.070;10.012;2022-12-07T04:13:01;100841.19;;;2.44;100.00
30421;BME280;17218;54.070;10.012;2022-12-07T04:15:28;100842.19;;;2.49;100.00
30421;BME280;17218;54.070;10.012;2022-12-07T04:17:54;100853.09;;;2.43;100.00
30421;BME280;17218;54.070;10.012;2022-12-07T04:20:22;100838.41;;;2.36;100.00
30421;BME280;17218;54.070;10.012;2022-12-07T04:22:49;100850.16;;;2.29;100.00
30421;BME280;17218;54.070;10.012;2022-12-07T04:25:16;100853.50;;;2.26;100.00
30421;BME280;17218;54.070;10.012;2022-12-07T04:27:43;100852.66;;;2.28;100.00
30421;BME280;17218;54.070;10.012;2022-12-07T04:30:09;100852.53;;;2.23;100.00
30421;BME280;17218;54.070;10.012;2022-12-07T04:32:36;100850.81;;;2.22;100.00
30421;BME280;17218;54.070;10.012;2022-12-07T04:35:03;100859.34;;;2.22;100.00
30421;BME280;17218;54.070;10.012;2022-12-07T04:37:32;100860.00;;;2.17;100.00
30421;BME280;17218;54.070;10.012;2022-12-07T04:39:58;100854.63;;;2.07;100.00
30421;BME280;17218;54.070;10.012;2022-12-07T04:42:25;100853.81;;;2.08;100.00
30421;BME280;17218;54.070;10.012;2022-12-07T04:44:52;100834.09;;;2.04;100.00
30421;BME280;17218;54.070;10.012;2022-12-07T04:47:18;100839.81;;;1.95;100.00
30421;BME280;17218;54.070;10.012;2022-12-07T04:49:45;100833.66;;;1.88;100.00
30421;BME280;17218;54.070;10.012;2022-12-07T04:52:12;100833.22;;;1.74;100.00
30421;BME280;17218;54.070;10.012;2022-12-07T04:54:40;100840.88;;;1.74;100.00
30421;BME280;17218;54.070;10.012;2022-12-07T04:57:06;100833.22;;;1.74;100.00
30421;BME280;17218;54.070;10.012;2022-12-07T04:59:33;100837.41;;;1.72;100.00
30421;BME280;17218;54.070;10.012;2022-12-07T05:02:00;100841.53;;;1.67;100.00
30421;BME280;17218;54.070;10.012;2022-12-07T05:04:26;100830.22;;;1.59;100.00
30421;BME280;17218;54.070;10.012;2022-12-07T05:06:53;100834.91;;;1.46;100.00
30421;BME280;17218;54.070;10.012;2022-12-07T05:09:19;100829.41;;;1.34;100.00
30421;BME280;17218;54.070;10.012;2022-12-07T05:11:47;100829.38;;;1.32;100.00
30421;BME280;17218;54.070;10.012;2022-12-07T05:14:16;100832.72;;;1.29;100.00
30421;BME280;17218;54.070;10.012;2022-12-07T05:16:43;100838.41;;;1.22;100.00
30421;BME280;17218;54.070;10.012;2022-12-07T05:19:12;100815.91;;;1.10;100.00
30421;BME280;17218;54.070;10.012;2022-12-07T05:21:39;100821.84;;;1.09;100.00
30421;BME280;17218;54.070;10.012;2022-12-07T05:24:06;100813.94;;;1.01;100.00
30421;BME280;17218;54.070;10.012;2022-12-07T05:26:34;100824.81;;;0.95;100.00
30421;BME280;17218;54.070;10.012;2022-12-07T05:29:02;100800.69;;;0.87;100.00
30421;BME280;17218;54.070;10.012;2022-12-07T05:31:29;100810.75;;;0.82;100.00
30421;BME280;17218;54.070;10.012;2022-12-07T05:33:56;100823.41;;;0.79;100.00
30421;BME280;17218;54.070;10.012;2022-12-07T05:36:23;100807.28;;;0.80;100.00
30421;BME280;17218;54.070;10.012;2022-12-07T05:38:50;100808.97;;;0.80;100.00
30421;BME280;17218;54.070;10.012;2022-12-07T05:41:17;100805.19;;;0.68;100.00
30421;BME280;17218;54.070;10.012;2022-12-07T05:44:04;100816.06;;;0.63;100.00
30421;BME280;17218;54.070;10.012;2022-12-07T05:46:31;100821.16;;;0.63;100.00
30421;BME280;17218;54.070;10.012;2022-12-07T05:48:57;100823.63;;;0.61;100.00
30421;BME280;17218;54.070;10.012;2022-12-07T05:51:24;100824.50;;;0.62;100.00
30421;BME280;17218;54.070;10.012;2022-12-07T05:53:51;100810.88;;;0.61;100.00
30421;BME280;17218;54.070;10.012;2022-12-07T05:56:17;100809.78;;;0.54;100.00
30421;BME280;17218;54.070;10.012;2022-12-07T05:58:44;100803.72;;;0.51;100.00
30421;BME280;17218;54.070;10.012;2022-12-07T06:01:30;100812.16;;;0.48;100.00
30421;BME280;17218;54.070;10.012;2022-12-07T06:03:56;100803.53;;;0.44;100.00
30421;BME280;17218;54.070;10.012;2022-12-07T06:06:23;100799.81;;;0.36;100.00
30421;BME280;17218;54.070;10.012;2022-12-07T06:08:49;100802.28;;;0.33;100.00
30421;BME280;17218;54.070;10.012;2022-12-07T06:11:16;100800.53;;;0.32;100.00
30421;BME280;17218;54.070;10.012;2022-12-07T06:14:00;100799.72;;;0.33;100.00
30421;BME280;17218;54.070;10.012;2022-12-07T06:16:27;100802.22;;;0.31;100.00
30421;BME280;17218;54.070;10.012;2022-12-07T06:18:55;100799.78;;;0.34;100.00
30421;BME280;17218;54.070;10.012;2022-12-07T06:21:21;100808.34;;;0.37;100.00
30421;BME280;17218;54.070;10.012;2022-12-07T06:23:48;100807.56;;;0.39;100.00
30421;BME280;17218;54.070;10.012;2022-12-07T06:26:15;100806.53;;;0.34;100.00
30421;BME280;17218;54.070;10.012;2022-12-07T06:28:42;100808.41;;;0.38;100.00
30421;BME280;17218;54.070;10.012;2022-12-07T06:31:09;100804.31;;;0.43;100.00
30421;BME280;17218;54.070;10.012;2022-12-07T06:33:36;100807.75;;;0.44;100.00
30421;BME280;17218;54.070;10.012;2022-12-07T06:36:04;100806.72;;;0.39;100.00
30421;BME280;17218;54.070;10.012;2022-12-07T06:38:31;100812.56;;;0.36;100.00
30421;BME280;17218;54.070;10.012;2022-12-07T06:40:57;100811.69;;;0.35;100.00
30421;BME280;17218;54.070;10.012;2022-12-07T06:43:24;100816.78;;;0.35;100.00
30421;BME280;17218;54.070;10.012;2022-12-07T06:45:51;100805.03;;;0.39;100.00
30421;BME280;17218;54.070;10.012;2022-12-07T06:48:17;100811.00;;;0.40;100.00
30421;BME280;17218;54.070;10.012;2022-12-07T06:50:44;100805.94;;;0.41;100.00
30421;BME280;17218;54.070;10.012;2022-12-07T06:53:12;100810.75;;;0.33;100.00
30421;BME280;17218;54.070;10.012;2022-12-07T06:55:39;100809.03;;;0.32;100.00
30421;BME280;17218;54.070;10.012;2022-12-07T06:58:06;100810.72;;;0.32;100.00
30421;BME280;17218;54.070;10.012;2022-12-07T07:00:33;100807.41;;;0.34;100.00
30421;BME280;17218;54.070;10.012;2022-12-07T07:03:00;100822.00;;;0.39;100.00
30421;BME280;17218;54.070;10.012;2022-12-07T07:05:27;100813.50;;;0.38;100.00
30421;BME280;17218;54.070;10.012;2022-12-07T07:07:53;100815.25;;;0.41;100.00
30421;BME280;17218;54.070;10.012;2022-12-07T07:10:21;100816.91;;;0.39;100.00
30421;BME280;17218;54.070;10.012;2022-12-07T07:12:48;100817.63;;;0.34;100.00
30421;BME280;17218;54.070;10.012;2022-12-07T07:15:14;100815.94;;;0.35;100.00
30421;BME280;17218;54.070;10.012;2022-12-07T07:17:41;100817.63;;;0.34;100.00
30421;BME280;17218;54.070;10.012;2022-12-07T07:20:08;100817.66;;;0.36;100.00
30421;BME280;17218;54.070;10.012;2022-12-07T07:22:35;100816.78;;;0.35;100.00
30421;BME280;17218;54.070;10.012;2022-12-07T07:25:02;100821.03;;;0.35;100.00
30421;BME280;17218;54.070;10.012;2022-12-07T07:27:30;100820.91;;;0.32;100.00
30421;BME280;17218;54.070;10.012;2022-12-07T07:29:57;100825.03;;;0.28;100.00
30421;BME280;17218;54.070;10.012;2022-12-07T07:32:23;100831.94;;;0.31;100.00
30421;BME280;17218;54.070;10.012;2022-12-07T07:34:50;100827.75;;;0.33;100.00
30421;BME280;17218;54.070;10.012;2022-12-07T07:37:17;100822.13;;;0.42;100.00
30421;BME280;17218;54.070;10.012;2022-12-07T07:39:44;100822.84;;;0.39;100.00
30421;BME280;17218;54.070;10.012;2022-12-07T07:42:10;100822.00;;;0.39;100.00
30421;BME280;17218;54.070;10.012;2022-12-07T07:44:38;100826.34;;;0.41;100.00
30421;BME280;17218;54.070;10.012;2022-12-07T07:47:05;100817.91;;;0.42;100.00
30421;BME280;17218;54.070;10.012;2022-12-07T07:49:31;100818.88;;;0.46;100.00
30421;BME280;17218;54.070;10.012;2022-12-07T07:51:58;100813.91;;;0.51;100.00
30421;BME280;17218;54.070;10.012;2022-12-07T07:54:25;100821.56;;;0.51;100.00
30421;BME280;17218;54.070;10.012;2022-12-07T07:56:52;100816.56;;;0.54;100.00
30421;BME280;17218;54.070;10.012;2022-12-07T07:59:18;100827.03;;;0.62;100.00
30421;BME280;17218;54.070;10.012;2022-12-07T08:01:46;100822.06;;;0.65;100.00
30421;BME280;17218;54.070;10.012;2022-12-07T08:04:13;100830.38;;;0.59;100.00
30421;BME280;17218;54.070;10.012;2022-12-07T08:06:40;100832.41;;;0.69;100.00
30421;BME280;17218;54.070;10.012;2022-12-07T08:09:08;100824.25;;;0.80;100.00
30421;BME280;17218;54.070;10.012;2022-12-07T08:11:35;100826.81;;;0.80;100.00
30421;BME280;17218;54.070;10.012;2022-12-07T08:14:03;100828.53;;;0.79;100.00
30421;BME280;17218;54.070;10.012;2022-12-07T08:16:30;100824.47;;;0.86;100.00
30421;BME280;17218;54.070;10.012;2022-12-07T08:18:58;100839.19;;;0.93;100.00
30421;BME280;17218;54.070;10.012;2022-12-07T08:21:24;100831.84;;;1.03;100.00
30421;BME280;17218;54.070;10.012;2022-12-07T08:23:51;100828.63;;;1.09;100.00
30421;BME280;17218;54.070;10.012;2022-12-07T08:26:17;100839.84;;;1.14;100.00
30421;BME280;17218;54.070;10.012;2022-12-07T08:28:44;100835.72;;;1.17;100.00
30421;BME280;17218;54.070;10.012;2022-12-07T08:31:13;100842.81;;;1.26;100.00
30421;BME280;17218;54.070;10.012;2022-12-07T08:33:41;100833.69;;;1.33;100.00
30421;BME280;17218;54.070;10.012;2022-12-07T08:36:10;100836.38;;;1.38;100.00
30421;BME280;17218;54.070;10.012;2022-12-07T08:38:39;100838.16;;;1.40;100.00
30421;BME280;17218;54.070;10.012;2022-12-07T08:41:06;100838.09;;;1.39;100.00
30421;BME280;17218;54.070;10.012;2022-12-07T08:43:33;100835.69;;;1.43;100.00
30421;BME280;17218;54.070;10.012;2022-12-07T08:46:06;100833.28;;;1.48;100.00
30421;BME280;17218;54.070;10.012;2022-12-07T08:48:34;100828.34;;;1.53;100.00
30421;BME280;17218;54.070;10.012;2022-12-07T08:51:02;100826.75;;;1.57;100.00
30421;BME280;17218;54.070;10.012;2022-12-07T08:53:31;100834.56;;;1.63;100.00
30421;BME280;17218;54.070;10.012;2022-12-07T08:55:58;100834.81;;;1.71;100.00
30421;BME280;17218;54.070;10.012;2022-12-07T08:58:25;100830.72;;;1.76;100.00
30421;BME280;17218;54.070;10.012;2022-12-07T09:00:52;100837.75;;;1.83;100.00
30421;BME280;17218;54.070;10.012;2022-12-07T09:03:19;100840.28;;;1.83;100.00
30421;BME280;17218;54.070;10.012;2022-12-07T09:05:46;100835.44;;;1.91;100.00
30421;BME280;17218;54.070;10.012;2022-12-07T09:08:12;100829.59;;;1.95;100.00
30421;BME280;17218;54.070;10.012;2022-12-07T09:10:40;100834.09;;;2.04;100.00
30421;BME280;17218;54.070;10.012;2022-12-07T09:13:07;100836.81;;;2.09;100.00
30421;BME280;17218;54.070;10.012;2022-12-07T09:15:34;100843.72;;;2.13;100.00
30421;BME280;17218;54.070;10.012;2022-12-07T09:18:00;100844.75;;;2.18;100.00
30421;BME280;17218;54.070;10.012;2022-12-07T09:20:27;100840.59;;;2.22;100.00
30421;BME280;17218;54.070;10.012;2022-12-07T09:22:53;100832.13;;;2.24;100.00
30421;BME280;17218;54.070;10.012;2022-12-07T09:25:20;100838.38;;;2.34;100.00
30421;BME280;17218;54.070;10.012;2022-12-07T09:27:55;100829.22;;;2.43;100.00
30421;BME280;17218;54.070;10.012;2022-12-07T09:30:21;100837.09;;;2.50;100.00
30421;BME280;17218;54.070;10.012;2022-12-07T09:32:48;100834.59;;;2.52;100.00
30421;BME280;17218;54.070;10.012;2022-12-07T09:35:15;100836.34;;;2.53;100.00
30421;BME280;17218;54.070;10.012;2022-12-07T09:37:41;100831.25;;;2.55;100.00
30421;BME280;17218;54.070;10.012;2022-12-07T09:40:08;100829.72;;;2.61;100.00
30421;BME280;17218;54.070;10.012;2022-12-07T09:42:37;100835.16;;;2.74;100.00
30421;BME280;17218;54.070;10.012;2022-12-07T09:45:10;100830.22;;;2.80;100.00
30421;BME280;17218;54.070;10.012;2022-12-07T09:47:38;100832.81;;;2.82;100.00
30421;BME280;17218;54.070;10.012;2022-12-07T09:50:11;100828.50;;;2.79;100.00
30421;BME280;17218;54.070;10.012;2022-12-07T09:52:39;100824.28;;;2.81;100.00
30421;BME280;17218;54.070;10.012;2022-12-07T09:55:12;100826.81;;;2.81;100.00
30421;BME280;17218;54.070;10.012;2022-12-07T09:57:40;100826.09;;;2.85;100.00
30421;BME280;17218;54.070;10.012;2022-12-07T10:00:12;100826.06;;;2.84;100.00
30421;BME280;17218;54.070;10.012;2022-12-07T10:02:41;100824.47;;;2.89;100.00
30421;BME280;17218;54.070;10.012;2022-12-07T10:05:12;100819.56;;;2.97;100.00
30421;BME280;17218;54.070;10.012;2022-12-07T10:07:40;100818.00;;;3.04;100.00
30421;BME280;17218;54.070;10.012;2022-12-07T10:10:14;100833.34;;;3.02;100.00
30421;BME280;17218;54.070;10.012;2022-12-07T10:12:56;100828.91;;;2.96;100.00
30421;BME280;17218;54.070;10.012;2022-12-07T10:15:41;100828.22;;;3.02;100.00
30421;BME280;17218;54.070;10.012;2022-12-07T10:18:18;100825.66;;;3.02;100.00
30421;BME280;17218;54.070;10.012;2022-12-07T10:20:46;100828.13;;;2.97;100.00
30421;BME280;17218;54.070;10.012;2022-12-07T10:23:15;100822.78;;;2.90;100.00
30421;BME280;17218;54.070;10.012;2022-12-07T10:25:42;100817.06;;;3.00;100.00
30421;BME280;17218;54.070;10.012;2022-12-07T10:28:13;100821.09;;;2.90;100.00
30421;BME280;17218;54.070;10.012;2022-12-07T10:30:56;100819.88;;;3.09;100.00
30421;BME280;17218;54.070;10.012;2022-12-07T10:33:33;100811.03;;;3.33;100.00
30421;BME280;17218;54.070;10.012;2022-12-07T10:36:16;100811.41;;;3.49;100.00
30421;BME280;17218;54.070;10.012;2022-12-07T10:38:45;100818.69;;;3.69;100.00
30421;BME280;17218;54.070;10.012;2022-12-07T10:41:12;100812.72;;;3.70;100.00
30421;BME280;17218;54.070;10.012;2022-12-07T10:43:46;100819.53;;;3.68;100.00
30421;BME280;17218;54.070;10.012;2022-12-07T10:46:49;100813.75;;;3.78;100.00
30421;BME280;17218;54.070;10.012;2022-12-07T10:49:48;100817.31;;;3.85;100.00
30421;BME280;17218;54.070;10.012;2022-12-07T10:52:28;100804.63;;;3.90;100.00
30421;BME280;17218;54.070;10.012;2022-12-07T10:55:08;100806.38;;;3.94;100.00
30421;BME280;17218;54.070;10.012;2022-12-07T10:57:47;100801.31;;;3.96;100.00
30421;BME280;17218;54.070;10.012;2022-12-07T11:00:21;100809.84;;;3.96;100.00
30421;BME280;17218;54.070;10.012;2022-12-07T11:03:08;100803.56;;;3.81;100.00
30421;BME280;17218;54.070;10.012;2022-12-07T11:05:45;100811.31;;;3.85;100.00
30421;BME280;17218;54.070;10.012;2022-12-07T11:08:21;100798.81;;;3.58;100.00
30421;BME280;17218;54.070;10.012;2022-12-07T11:10:59;100786.13;;;3.65;100.00
30421;BME280;17218;54.070;10.012;2022-12-07T11:13:36;100795.78;;;3.75;100.00
30421;BME280;17218;54.070;10.012;2022-12-07T11:16:21;100797.97;;;3.60;100.00
30421;BME280;17218;54.070;10.012;2022-12-07T11:18:59;100790.34;;;3.63;100.00
30421;BME280;17218;54.070;10.012;2022-12-07T11:21:31;100789.81;;;3.76;100.00
30421;BME280;17218;54.070;10.012;2022-12-07T11:24:05;100785.44;;;3.72;100.00
30421;BME280;17218;54.070;10.012;2022-12-07T11:26:58;100788.19;;;3.81;100.00
30421;BME280;17218;54.070;10.012;2022-12-07T11:29:46;100772.66;;;3.74;100.00
30421;BME280;17218;54.070;10.012;2022-12-07T11:32:19;100765.72;;;3.68;100.00
30421;BME280;17218;54.070;10.012;2022-12-07T11:34:58;100772.38;;;3.61;100.00
30421;BME280;17218;54.070;10.012;2022-12-07T11:37:31;100779.28;;;3.64;100.00
30421;BME280;17218;54.070;10.012;2022-12-07T11:40:01;100770.84;;;3.68;100.00
30421;BME280;17218;54.070;10.012;2022-12-07T11:42:33;100770.91;;;3.71;100.00
30421;BME280;17218;54.070;10.012;2022-12-07T11:45:04;100774.41;;;3.75;100.00
30421;BME280;17218;54.070;10.012;2022-12-07T11:47:41;100770.94;;;3.73;100.00
30421;BME280;17218;54.070;10.012;2022-12-07T11:50:21;100766.91;;;3.84;100.00
30421;BME280;17218;54.070;10.012;2022-12-07T11:52:53;100773.78;;;3.87;100.00
30421;BME280;17218;54.070;10.012;2022-12-07T11:55:27;100775.28;;;3.75;100.00
30421;BME280;17218;54.070;10.012;2022-12-07T11:58:01;100774.47;;;3.79;100.00
30421;BME280;17218;54.070;10.012;2022-12-07T12:00:29;100762.88;;;3.96;100.00
30421;BME280;17218;54.070;10.012;2022-12-07T12:03:01;100765.66;;;4.07;100.00
30421;BME280;17218;54.070;10.012;2022-12-07T12:05:29;100754.53;;;4.06;100.00
30421;BME280;17218;54.070;10.012;2022-12-07T12:08:03;100768.97;;;4.01;100.00
30421;BME280;17218;54.070;10.012;2022-12-07T12:10:39;100756.72;;;3.87;100.00
30421;BME280;17218;54.070;10.012;2022-12-07T12:13:27;100765.06;;;3.77;100.00
30421;BME280;17218;54.070;10.012;2022-12-07T12:16:19;100756.34;;;3.70;100.00
30421;BME280;17218;54.070;10.012;2022-12-07T12:19:01;100765.84;;;3.74;100.00
30421;BME280;17218;54.070;10.012;2022-12-07T12:21:34;100768.22;;;3.66;100.00
30421;BME280;17218;54.070;10.012;2022-12-07T12:24:04;100758.59;;;3.54;100.00
30421;BME280;17218;54.070;10.012;2022-12-07T12:26:36;100760.50;;;3.65;100.00
30421;BME280;17218;54.070;10.012;2022-12-07T12:29:06;100754.81;;;3.78;100.00
30421;BME280;17218;54.070;10.012;2022-12-07T12:31:37;100750.47;;;3.74;100.00
30421;BME280;17218;54.070;10.012;2022-12-07T12:34:32;100763.38;;;3.79;100.00
30421;BME280;17218;54.070;10.012;2022-12-07T12:37:00;100758.47;;;3.88;100.00
30421;BME280;17218;54.070;10.012;2022-12-07T12:39:27;100755.91;;;3.90;100.00
30421;BME280;17218;54.070;10.012;2022-12-07T12:42:00;100770.16;;;3.75;100.00
30421;BME280;17218;54.070;10.012;2022-12-07T12:45:04;100759.59;;;3.63;100.00
30421;BME280;17218;54.070;10.012;2022-12-07T12:47:58;100762.91;;;3.57;100.00
30421;BME280;17218;54.070;10.012;2022-12-07T12:50:30;100767.41;;;3.67;100.00
30421;BME280;17218;54.070;10.012;2022-12-07T12:53:14;100759.31;;;3.89;100.00
30421;BME280;17218;54.070;10.012;2022-12-07T12:56:21;100762.41;;;3.74;100.00
30421;BME280;17218;54.070;10.012;2022-12-07T12:59:23;100765.13;;;3.81;100.00